sensor_id;sensor_type;location;lat;lon;timestamp;pressure;altitude;pressure_sealevel;temperature;humidity
19208;BME280;9737;59.466;18.036;2023-05-23T00:02:14;98379.47;;;8.34;nan
19208;BME280;9737;59.466;18.036;2023-05-23T00:04:42;98349.09;;;8.28;nan
19208;BME280;9737;59.466;18.036;2023-05-23T00:07:11;98329.34;;;8.23;nan
19208;BME280;9737;59.466;18.036;2023-05-23T00:09:39;98325.19;;;8.20;nan
19208;BME280;9737;59.466;18.036;2023-05-23T00:12:07;98305.72;;;8.12;nan
19208;BME280;9737;59.466;18.036;2023-05-23T00:14:35;98294.31;;;8.11;nan
19208;BME280;9737;59.466;18.036;2023-05-23T00:17:11;98277.19;;;8.05;nan
19208;BME280;9737;59.466;18.036;2023-05-23T00:19:39;98266.06;;;8.02;nan
19208;BME280;9737;59.466;18.036;2023-05-23T00:22:07;98270.53;;;8.01;nan
19208;BME280;9737;59.466;18.036;2023-05-23T00:24:36;98251.47;;;7.98;nan
19208;BME280;9737;59.466;18.036;2023-05-23T00:27:04;98235.88;;;7.95;nan
19208;BME280;9737;59.466;18.036;2023-05-23T00:29:32;98215.31;;;7.89;nan
19208;BME280;9737;59.466;18.036;2023-05-23T00:32:00;98206.00;;;7.85;nan
19208;BME280;9737;59.466;18.036;2023-05-23T00:34:29;98203.38;;;7.85;nan
19208;BME280;9737;59.466;18.036;2023-05-23T00:36:57;98208.66;;;7.85;nan
19208;BME280;9737;59.466;18.036;2023-05-23T00:39:25;98248.13;;;7.96;nan
19208;BME280;9737;59.466;18.036;2023-05-23T00:41:53;98260.09;;;8.00;nan
19208;BME280;9737;59.466;18.036;2023-05-23T00:44:21;98229.28;;;7.81;nan
19208;BME280;9737;59.466;18.036;2023-05-23T00:46:52;98264.53;;;7.99;nan
19208;BME280;9737;59.466;18.036;2023-05-23T00:49:22;98261.06;;;7.99;nan
19208;BME280;9737;59.466;18.036;2023-05-23T00:51:52;98240.50;;;7.93;nan
19208;BME280;9737;59.466;18.036;2023-05-23T00:54:27;98212.81;;;7.87;nan
19208;BME280;9737;59.466;18.036;2023-05-23T00:56:57;98215.63;;;7.86;nan
19208;BME280;9737;59.466;18.036;2023-05-23T00:59:25;98224.25;;;7.88;nan
19208;BME280;9737;59.466;18.036;2023-05-23T01:01:55;98224.25;;;7.88;nan
19208;BME280;9737;59.466;18.036;2023-05-23T01:04:24;98218.94;;;7.88;nan
19208;BME280;9737;59.466;18.036;2023-05-23T01:06:55;98223.09;;;7.90;nan
19208;BME280;9737;59.466;18.036;2023-05-23T01:09:26;98222.28;;;7.90;nan
19208;BME280;9737;59.466;18.036;2023-05-23T01:12:05;98219.78;;;7.88;nan
19208;BME280;9737;59.466;18.036;2023-05-23T01:14:44;98217.28;;;7.87;nan
19208;BME280;9737;59.466;18.036;2023-05-23T01:17:16;98211.31;;;7.85;nan
19208;BME280;9737;59.466;18.036;2023-05-23T01:19:54;98201.03;;;7.82;nan
19208;BME280;9737;59.466;18.036;2023-05-23T01:22:45;98194.19;;;7.79;nan
19208;BME280;9737;59.466;18.036;2023-05-23T01:25:27;98185.56;;;7.77;nan
19208;BME280;9737;59.466;18.036;2023-05-23T01:28:05;98190.84;;;7.77;nan
19208;BME280;9737;59.466;18.036;2023-05-23T01:30:38;98196.97;;;7.77;nan
19208;BME280;9737;59.466;18.036;2023-05-23T01:33:07;98203.66;;;7.82;nan
19208;BME280;9737;59.466;18.036;2023-05-23T01:35:36;98225.22;;;7.87;nan
19208;BME280;9737;59.466;18.036;2023-05-23T01:38:04;98240.94;;;7.88;nan
19208;BME280;9737;59.466;18.036;2023-05-23T01:40:32;98246.63;;;7.93;nan
19208;BME280;9737;59.466;18.036;2023-05-23T01:43:00;98252.06;;;7.92;nan
19208;BME280;9737;59.466;18.036;2023-05-23T01:45:30;98269.84;;;7.99;nan
19208;BME280;9737;59.466;18.036;2023-05-23T01:47:58;98287.25;;;8.02;nan
19208;BME280;9737;59.466;18.036;2023-05-23T01:50:29;98301.84;;;8.06;nan
19208;BME280;9737;59.466;18.036;2023-05-23T01:52:59;98327.75;;;8.12;nan
19208;BME280;9737;59.466;18.036;2023-05-23T01:55:27;98327.75;;;8.12;nan
19208;BME280;9737;59.466;18.036;2023-05-23T01:57:57;98336.22;;;8.16;nan
19208;BME280;9737;59.466;18.036;2023-05-23T02:00:26;98345.81;;;8.17;nan
19208;BME280;9737;59.466;18.036;2023-05-23T02:02:56;98355.28;;;8.19;nan
19208;BME280;9737;59.466;18.036;2023-05-23T02:05:24;98359.44;;;8.22;nan
19208;BME280;9737;59.466;18.036;2023-05-23T02:07:55;98382.84;;;8.26;nan
19208;BME280;9737;59.466;18.036;2023-05-23T02:10:23;98377.84;;;8.23;nan
19208;BME280;9737;59.466;18.036;2023-05-23T02:12:51;98377.53;;;8.26;nan
19208;BME280;9737;59.466;18.036;2023-05-23T02:15:19;98390.78;;;8.26;nan
19208;BME280;9737;59.466;18.036;2023-05-23T02:17:47;98423.38;;;8.36;nan
19208;BME280;9737;59.466;18.036;2023-05-23T02:20:17;98426.00;;;8.36;nan
19208;BME280;9737;59.466;18.036;2023-05-23T02:22:45;98444.97;;;8.42;nan
19208;BME280;9737;59.466;18.036;2023-05-23T02:25:13;98479.22;;;8.53;nan
19208;BME280;9737;59.466;18.036;2023-05-23T02:27:42;98507.75;;;8.59;nan
19208;BME280;9737;59.466;18.036;2023-05-23T02:30:11;98543.00;;;8.69;nan
19208;BME280;9737;59.466;18.036;2023-05-23T02:32:39;98581.19;;;8.76;nan
19208;BME280;9737;59.466;18.036;2023-05-23T02:35:08;98619.78;;;8.88;nan
19208;BME280;9737;59.466;18.036;2023-05-23T02:37:37;98652.56;;;8.97;nan
19208;BME280;9737;59.466;18.036;2023-05-23T02:40:07;98679.91;;;8.97;nan
19208;BME280;9737;59.466;18.036;2023-05-23T02:42:35;98724.22;;;9.15;nan
19208;BME280;9737;59.466;18.036;2023-05-23T02:45:03;98743.34;;;9.09;nan
19208;BME280;9737;59.466;18.036;2023-05-23T02:47:31;98779.59;;;9.27;nan
19208;BME280;9737;59.466;18.036;2023-05-23T02:49:59;98824.66;;;9.37;nan
19208;BME280;9737;59.466;18.036;2023-05-23T02:52:27;98874.47;;;9.53;nan
19208;BME280;9737;59.466;18.036;2023-05-23T02:54:57;98947.91;;;9.72;nan
19208;BME280;9737;59.466;18.036;2023-05-23T02:57:24;98995.69;;;9.81;nan
19208;BME280;9737;59.466;18.036;2023-05-23T02:59:52;99034.38;;;9.93;nan
19208;BME280;9737;59.466;18.036;2023-05-23T03:02:20;99100.88;;;10.11;nan
19208;BME280;9737;59.466;18.036;2023-05-23T03:04:48;99137.28;;;10.20;nan
19208;BME280;9737;59.466;18.036;2023-05-23T03:07:16;99165.78;;;10.28;nan
19208;BME280;9737;59.466;18.036;2023-05-23T03:09:53;99219.38;;;10.43;nan
19208;BME280;9737;59.466;18.036;2023-05-23T03:12:22;99252.38;;;10.50;nan
19208;BME280;9737;59.466;18.036;2023-05-23T03:14:50;99287.06;;;10.58;nan
19208;BME280;9737;59.466;18.036;2023-05-23T03:17:18;99314.06;;;10.63;nan
19208;BME280;9737;59.466;18.036;2023-05-23T03:19:47;99328.75;;;10.67;nan
19208;BME280;9737;59.466;18.036;2023-05-23T03:22:15;99338.16;;;10.71;nan
19208;BME280;9737;59.466;18.036;2023-05-23T03:24:42;99359.16;;;10.74;nan
19208;BME280;9737;59.466;18.036;2023-05-23T03:27:11;99372.03;;;10.79;nan
19208;BME280;9737;59.466;18.036;2023-05-23T03:29:40;99398.34;;;10.82;nan
19208;BME280;9737;59.466;18.036;2023-05-23T03:32:08;99382.53;;;10.80;nan
19208;BME280;9737;59.466;18.036;2023-05-23T03:34:36;99402.53;;;10.84;nan
19208;BME280;9737;59.466;18.036;2023-05-23T03:37:04;99398.91;;;10.85;nan
19208;BME280;9737;59.466;18.036;2023-05-23T03:39:32;99508.28;;;11.11;nan
19208;BME280;9737;59.466;18.036;2023-05-23T03:42:01;99502.13;;;11.11;nan
19208;BME280;9737;59.466;18.036;2023-05-23T03:44:29;99531.09;;;11.14;nan
19208;BME280;9737;59.466;18.036;2023-05-23T03:46:58;99569.91;;;11.26;nan
19208;BME280;9737;59.466;18.036;2023-05-23T03:49:26;99618.56;;;11.38;nan
19208;BME280;9737;59.466;18.036;2023-05-23T03:51:54;99652.19;;;11.48;nan
19208;BME280;9737;59.466;18.036;2023-05-23T03:54:22;99733.84;;;11.69;nan
19208;BME280;9737;59.466;18.036;2023-05-23T03:56:50;99792.78;;;11.85;nan
19208;BME280;9737;59.466;18.036;2023-05-23T03:59:18;99843.31;;;11.96;nan
19208;BME280;9737;59.466;18.036;2023-05-23T04:01:46;99880.78;;;12.04;nan
19208;BME280;9737;59.466;18.036;2023-05-23T04:04:16;99948.03;;;12.18;nan
19208;BME280;9737;59.466;18.036;2023-05-23T04:06:44;100034.59;;;12.44;nan
19208;BME280;9737;59.466;18.036;2023-05-23T04:09:12;100060.72;;;12.50;nan
19208;BME280;9737;59.466;18.036;2023-05-23T04:11:41;100107.66;;;12.62;nan
19208;BME280;9737;59.466;18.036;2023-05-23T04:14:14;100157.31;;;12.75;nan
19208;BME280;9737;59.466;18.036;2023-05-23T04:16:42;100210.31;;;12.89;nan
19208;BME280;9737;59.466;18.036;2023-05-23T04:19:11;100332.19;;;13.20;nan
19208;BME280;9737;59.466;18.036;2023-05-23T04:21:40;100436.81;;;13.46;nan
19208;BME280;9737;59.466;18.036;2023-05-23T04:24:08;100533.75;;;13.69;nan
19208;BME280;9737;59.466;18.036;2023-05-23T04:26:36;100647.06;;;13.99;nan
19208;BME280;9737;59.466;18.036;2023-05-23T04:29:05;100641.00;;;13.97;nan
19208;BME280;9737;59.466;18.036;2023-05-23T04:31:33;100668.91;;;14.04;nan
19208;BME280;9737;59.466;18.036;2023-05-23T04:34:01;100773.28;;;14.24;nan
19208;BME280;9737;59.466;18.036;2023-05-23T04:36:29;100894.44;;;14.59;nan
19208;BME280;9737;59.466;18.036;2023-05-23T04:38:58;100975.66;;;14.80;nan
19208;BME280;9737;59.466;18.036;2023-05-23T04:41:26;101073.81;;;15.02;nan
19208;BME280;9737;59.466;18.036;2023-05-23T04:43:54;101079.78;;;15.05;nan
19208;BME280;9737;59.466;18.036;2023-05-23T04:46:24;101158.78;;;15.22;nan
19208;BME280;9737;59.466;18.036;2023-05-23T04:48:52;101209.56;;;15.35;nan
19208;BME280;9737;59.466;18.036;2023-05-23T04:51:20;101235.88;;;15.41;nan
19208;BME280;9737;59.466;18.036;2023-05-23T04:53:49;101156.34;;;15.19;nan
19208;BME280;9737;59.466;18.036;2023-05-23T04:56:18;101125.81;;;15.10;nan
19208;BME280;9737;59.466;18.036;2023-05-23T04:58:47;101104.03;;;15.04;nan
19208;BME280;9737;59.466;18.036;2023-05-23T05:01:15;101173.03;;;15.23;nan
19208;BME280;9737;59.466;18.036;2023-05-23T05:03:43;101173.03;;;15.23;nan
19208;BME280;9737;59.466;18.036;2023-05-23T05:06:13;101222.25;;;15.33;nan
19208;BME280;9737;59.466;18.036;2023-05-23T05:08:42;101308.94;;;15.54;nan
19208;BME280;9737;59.466;18.036;2023-05-23T05:11:10;101331.75;;;15.60;nan
19208;BME280;9737;59.466;18.036;2023-05-23T05:13:39;101369.44;;;15.69;nan
19208;BME280;9737;59.466;18.036;2023-05-23T05:16:07;101446.44;;;15.90;nan
19208;BME280;9737;59.466;18.036;2023-05-23T05:18:35;101566.00;;;16.16;nan
19208;BME280;9737;59.466;18.036;2023-05-23T05:21:03;101643.97;;;16.37;nan
19208;BME280;9737;59.466;18.036;2023-05-23T05:23:31;101719.56;;;16.55;nan
19208;BME280;9737;59.466;18.036;2023-05-23T05:25:59;101788.09;;;16.71;nan
19208;BME280;9737;59.466;18.036;2023-05-23T05:28:27;101880.13;;;16.97;nan
19208;BME280;9737;59.466;18.036;2023-05-23T05:30:57;101892.69;;;16.97;nan
19208;BME280;9737;59.466;18.036;2023-05-23T05:33:25;101932.19;;;17.08;nan
19208;BME280;9737;59.466;18.036;2023-05-23T05:35:54;101947.34;;;17.09;nan
19208;BME280;9737;59.466;18.036;2023-05-23T05:38:21;102067.81;;;17.39;nan
19208;BME280;9737;59.466;18.036;2023-05-23T05:40:49;102173.44;;;17.64;nan
19208;BME280;9737;59.466;18.036;2023-05-23T05:43:17;102188.41;;;17.69;nan
19208;BME280;9737;59.466;18.036;2023-05-23T05:45:45;102300.34;;;17.95;nan
19208;BME280;9737;59.466;18.036;2023-05-23T05:48:14;102329.50;;;18.01;nan
19208;BME280;9737;59.466;18.036;2023-05-23T05:50:43;102387.78;;;18.13;nan
19208;BME280;9737;59.466;18.036;2023-05-23T05:53:12;102549.06;;;18.54;nan
19208;BME280;9737;59.466;18.036;2023-05-23T05:55:40;102587.00;;;18.64;nan
19208;BME280;9737;59.466;18.036;2023-05-23T05:58:08;102712.41;;;18.94;nan
19208;BME280;9737;59.466;18.036;2023-05-23T06:00:36;102735.47;;;18.98;nan
19208;BME280;9737;59.466;18.036;2023-05-23T06:03:08;102829.31;;;19.18;nan
19208;BME280;9737;59.466;18.036;2023-05-23T06:05:37;102814.09;;;19.17;nan
19208;BME280;9737;59.466;18.036;2023-05-23T06:08:06;102885.81;;;19.32;nan
19208;BME280;9737;59.466;18.036;2023-05-23T06:10:36;102971.72;;;19.51;nan
19208;BME280;9737;59.466;18.036;2023-05-23T06:13:04;102984.19;;;19.54;nan
19208;BME280;9737;59.466;18.036;2023-05-23T06:15:34;103074.34;;;19.76;nan
19208;BME280;9737;59.466;18.036;2023-05-23T06:18:02;103100.03;;;19.82;nan
19208;BME280;9737;59.466;18.036;2023-05-23T06:20:30;102942.59;;;19.43;nan
19208;BME280;9737;59.466;18.036;2023-05-23T06:22:59;102872.03;;;19.24;nan
19208;BME280;9737;59.466;18.036;2023-05-23T06:25:31;102884.44;;;19.27;nan
19208;BME280;9737;59.466;18.036;2023-05-23T06:27:59;102923.19;;;19.38;nan
19208;BME280;9737;59.466;18.036;2023-05-23T06:30:27;102932.88;;;19.41;nan
19208;BME280;9737;59.466;18.036;2023-05-23T06:32:55;103140.84;;;19.90;nan
19208;BME280;9737;59.466;18.036;2023-05-23T06:35:23;103288.84;;;20.25;nan
19208;BME280;9737;59.466;18.036;2023-05-23T06:37:51;103373.09;;;20.44;nan
19208;BME280;9737;59.466;18.036;2023-05-23T06:40:20;103548.75;;;20.85;nan
19208;BME280;9737;59.466;18.036;2023-05-23T06:42:48;103593.03;;;20.97;nan
19208;BME280;9737;59.466;18.036;2023-05-23T06:45:16;103662.34;;;21.12;nan
19208;BME280;9737;59.466;18.036;2023-05-23T06:47:44;103618.91;;;21.01;nan
19208;BME280;9737;59.466;18.036;2023-05-23T06:50:13;103649.97;;;21.08;nan
19208;BME280;9737;59.466;18.036;2023-05-23T06:52:45;103689.00;;;21.18;nan
19208;BME280;9737;59.466;18.036;2023-05-23T06:55:13;103740.59;;;21.29;nan
19208;BME280;9737;59.466;18.036;2023-05-23T06:57:46;103773.44;;;21.38;nan
19208;BME280;9737;59.466;18.036;2023-05-23T07:00:18;103758.38;;;21.33;nan
19208;BME280;9737;59.466;18.036;2023-05-23T07:02:46;103834.91;;;21.50;nan
19208;BME280;9737;59.466;18.036;2023-05-23T07:05:15;103911.28;;;21.69;nan
19208;BME280;9737;59.466;18.036;2023-05-23T07:07:43;103895.22;;;21.66;nan
19208;BME280;9737;59.466;18.036;2023-05-23T07:10:11;103813.47;;;21.47;nan
19208;BME280;9737;59.466;18.036;2023-05-23T07:12:39;103865.06;;;21.58;nan
19208;BME280;9737;59.466;18.036;2023-05-23T07:15:10;103871.25;;;21.60;nan
19208;BME280;9737;59.466;18.036;2023-05-23T07:17:38;103876.56;;;21.61;nan
19208;BME280;9737;59.466;18.036;2023-05-23T07:20:07;103845.53;;;21.53;nan
19208;BME280;9737;59.466;18.036;2023-05-23T07:22:35;103908.56;;;21.69;nan
19208;BME280;9737;59.466;18.036;2023-05-23T07:25:03;103940.69;;;21.75;nan
19208;BME280;9737;59.466;18.036;2023-05-23T07:27:32;103803.81;;;21.43;nan
19208;BME280;9737;59.466;18.036;2023-05-23T07:29:59;103720.22;;;21.24;nan
19208;BME280;9737;59.466;18.036;2023-05-23T07:32:30;103700.69;;;21.19;nan
19208;BME280;9737;59.466;18.036;2023-05-23T07:34:57;103664.38;;;21.09;nan
19208;BME280;9737;59.466;18.036;2023-05-23T07:37:25;103550.81;;;20.82;nan
19208;BME280;9737;59.466;18.036;2023-05-23T07:39:54;103611.09;;;20.96;nan
19208;BME280;9737;59.466;18.036;2023-05-23T07:42:22;103733.47;;;21.28;nan
19208;BME280;9737;59.466;18.036;2023-05-23T07:44:50;103800.41;;;21.39;nan
19208;BME280;9737;59.466;18.036;2023-05-23T07:47:17;103901.59;;;21.65;nan
19208;BME280;9737;59.466;18.036;2023-05-23T07:49:47;103989.59;;;21.86;nan
19208;BME280;9737;59.466;18.036;2023-05-23T07:52:14;104029.63;;;21.95;nan
19208;BME280;9737;59.466;18.036;2023-05-23T07:54:42;104078.53;;;22.08;nan
19208;BME280;9737;59.466;18.036;2023-05-23T07:57:10;104071.47;;;22.06;nan
19208;BME280;9737;59.466;18.036;2023-05-23T07:59:38;104050.94;;;22.02;nan
19208;BME280;9737;59.466;18.036;2023-05-23T08:02:06;104165.75;;;22.29;nan
19208;BME280;9737;59.466;18.036;2023-05-23T08:04:34;104201.38;;;22.37;nan
19208;BME280;9737;59.466;18.036;2023-05-23T08:07:03;104208.34;;;22.41;nan
19208;BME280;9737;59.466;18.036;2023-05-23T08:09:33;104268.94;;;22.54;nan
19208;BME280;9737;59.466;18.036;2023-05-23T08:12:01;104262.66;;;22.54;nan
19208;BME280;9737;59.466;18.036;2023-05-23T08:14:29;104370.50;;;22.79;nan
19208;BME280;9737;59.466;18.036;2023-05-23T08:17:15;104491.03;;;23.05;nan
19208;BME280;9737;59.466;18.036;2023-05-23T08:19:48;104585.50;;;23.28;nan
19208;BME280;9737;59.466;18.036;2023-05-23T08:22:17;104677.53;;;23.48;nan
19208;BME280;9737;59.466;18.036;2023-05-23T08:24:45;104506.06;;;23.10;nan
19208;BME280;9737;59.466;18.036;2023-05-23T08:27:13;104369.72;;;22.77;nan
19208;BME280;9737;59.466;18.036;2023-05-23T08:29:41;104311.78;;;22.64;nan
19208;BME280;9737;59.466;18.036;2023-05-23T08:32:09;104381.25;;;22.80;nan
19208;BME280;9737;59.466;18.036;2023-05-23T08:34:38;104545.25;;;23.21;nan
19208;BME280;9737;59.466;18.036;2023-05-23T08:37:06;104580.09;;;23.28;nan
19208;BME280;9737;59.466;18.036;2023-05-23T08:39:35;104710.34;;;23.60;nan
19208;BME280;9737;59.466;18.036;2023-05-23T08:42:04;104828.25;;;23.87;nan
19208;BME280;9737;59.466;18.036;2023-05-23T08:44:32;105015.03;;;24.32;nan
19208;BME280;9737;59.466;18.036;2023-05-23T08:47:02;105150.22;;;24.62;nan
19208;BME280;9737;59.466;18.036;2023-05-23T08:49:32;105321.19;;;25.02;nan
19208;BME280;9737;59.466;18.036;2023-05-23T08:52:01;105645.84;;;25.77;nan
19208;BME280;9737;59.466;18.036;2023-05-23T08:54:29;105908.06;;;26.37;nan
19208;BME280;9737;59.466;18.036;2023-05-23T08:57:00;106232.69;;;27.12;nan
19208;BME280;9737;59.466;18.036;2023-05-23T08:59:29;106413.72;;;27.53;nan
19208;BME280;9737;59.466;18.036;2023-05-23T09:01:59;106335.28;;;27.36;nan
19208;BME280;9737;59.466;18.036;2023-05-23T09:04:27;106620.19;;;27.99;nan
19208;BME280;9737;59.466;18.036;2023-05-23T09:06:58;106659.03;;;28.07;nan
19208;BME280;9737;59.466;18.036;2023-05-23T09:09:26;106554.34;;;27.85;nan
19208;BME280;9737;59.466;18.036;2023-05-23T09:11:55;106471.41;;;27.66;nan
19208;BME280;9737;59.466;18.036;2023-05-23T09:14:26;106458.88;;;27.62;nan
19208;BME280;9737;59.466;18.036;2023-05-23T09:16:59;106405.59;;;27.52;nan
19208;BME280;9737;59.466;18.036;2023-05-23T09:19:30;106603.75;;;27.99;nan
19208;BME280;9737;59.466;18.036;2023-05-23T09:22:01;106544.34;;;27.84;nan
19208;BME280;9737;59.466;18.036;2023-05-23T09:24:35;106811.34;;;28.46;nan
19208;BME280;9737;59.466;18.036;2023-05-23T09:27:04;106992.97;;;28.86;nan
19208;BME280;9737;59.466;18.036;2023-05-23T09:29:37;107011.03;;;28.90;nan
19208;BME280;9737;59.466;18.036;2023-05-23T09:32:13;107351.22;;;29.65;nan
19208;BME280;9737;59.466;18.036;2023-05-23T09:34:41;107413.66;;;29.80;nan
19208;BME280;9737;59.466;18.036;2023-05-23T09:37:11;107452.63;;;29.88;nan
19208;BME280;9737;59.466;18.036;2023-05-23T09:39:45;107512.34;;;30.04;nan
19208;BME280;9737;59.466;18.036;2023-05-23T09:42:18;107476.06;;;29.96;nan
19208;BME280;9737;59.466;18.036;2023-05-23T09:44:48;107797.91;;;30.69;nan
19208;BME280;9737;59.466;18.036;2023-05-23T09:47:16;108060.47;;;31.25;nan
19208;BME280;9737;59.466;18.036;2023-05-23T09:49:44;108245.88;;;31.66;nan
19208;BME280;9737;59.466;18.036;2023-05-23T09:52:13;108083.09;;;31.31;nan
19208;BME280;9737;59.466;18.036;2023-05-23T09:54:41;108161.16;;;31.51;nan
19208;BME280;9737;59.466;18.036;2023-05-23T09:57:10;108115.66;;;31.42;nan
19208;BME280;9737;59.466;18.036;2023-05-23T09:59:39;108327.56;;;31.89;nan
19208;BME280;9737;59.466;18.036;2023-05-23T10:02:10;108287.47;;;31.82;nan
19208;BME280;9737;59.466;18.036;2023-05-23T10:04:39;108332.88;;;31.93;nan
19208;BME280;9737;59.466;18.036;2023-05-23T10:07:12;108442.91;;;32.20;nan
19208;BME280;9737;59.466;18.036;2023-05-23T10:09:47;108624.28;;;32.57;nan
19208;BME280;9737;59.466;18.036;2023-05-23T10:12:43;108109.94;;;31.47;nan
19208;BME280;9737;59.466;18.036;2023-05-23T10:15:14;108211.53;;;31.74;nan
19208;BME280;9737;59.466;18.036;2023-05-23T10:17:59;108063.47;;;31.39;nan
19208;BME280;9737;59.466;18.036;2023-05-23T10:20:32;108426.22;;;32.23;nan
19208;BME280;9737;59.466;18.036;2023-05-23T10:23:01;108270.53;;;31.91;nan
19208;BME280;9737;59.466;18.036;2023-05-23T10:25:30;108249.50;;;31.88;nan
19208;BME280;9737;59.466;18.036;2023-05-23T10:28:01;108203.13;;;31.78;nan
19208;BME280;9737;59.466;18.036;2023-05-23T10:30:30;108387.75;;;32.20;nan
19208;BME280;9737;59.466;18.036;2023-05-23T10:33:01;108782.19;;;33.09;nan
19208;BME280;9737;59.466;18.036;2023-05-23T10:35:43;109014.03;;;33.59;nan
19208;BME280;9737;59.466;18.036;2023-05-23T10:38:28;108915.31;;;33.40;nan
19208;BME280;9737;59.466;18.036;2023-05-23T10:41:08;109326.44;;;34.29;nan
19208;BME280;9737;59.466;18.036;2023-05-23T10:43:43;109488.34;;;34.64;nan
19208;BME280;9737;59.466;18.036;2023-05-23T10:46:14;109547.91;;;34.75;nan
19208;BME280;9737;59.466;18.036;2023-05-23T10:48:43;109494.69;;;34.67;nan
19208;BME280;9737;59.466;18.036;2023-05-23T10:51:12;109424.09;;;34.56;nan
19208;BME280;9737;59.466;18.036;2023-05-23T10:53:42;109317.03;;;34.33;nan
19208;BME280;9737;59.466;18.036;2023-05-23T10:56:10;109050.84;;;33.81;nan
19208;BME280;9737;59.466;18.036;2023-05-23T10:58:45;108992.34;;;33.70;nan
19208;BME280;9737;59.466;18.036;2023-05-23T11:01:14;108979.44;;;33.70;nan
19208;BME280;9737;59.466;18.036;2023-05-23T11:03:50;108975.75;;;33.70;nan
19208;BME280;9737;59.466;18.036;2023-05-23T11:06:32;108884.38;;;33.52;nan
19208;BME280;9737;59.466;18.036;2023-05-23T11:09:02;109206.88;;;34.21;nan
19208;BME280;9737;59.466;18.036;2023-05-23T11:11:51;109389.59;;;34.64;nan
19208;BME280;9737;59.466;18.036;2023-05-23T11:14:20;109724.72;;;35.37;nan
19208;BME280;9737;59.466;18.036;2023-05-23T11:16:57;109857.53;;;35.68;nan
19208;BME280;9737;59.466;18.036;2023-05-23T11:19:27;109550.53;;;35.03;nan
19208;BME280;9737;59.466;18.036;2023-05-23T11:21:59;109296.00;;;34.52;nan
19208;BME280;9737;59.466;18.036;2023-05-23T11:24:47;109085.66;;;34.08;nan
19208;BME280;9737;59.466;18.036;2023-05-23T11:27:17;109055.38;;;34.05;nan
19208;BME280;9737;59.466;18.036;2023-05-23T11:29:56;108706.59;;;33.33;nan
19208;BME280;9737;59.466;18.036;2023-05-23T11:32:27;108856.09;;;33.68;nan
19208;BME280;9737;59.466;18.036;2023-05-23T11:34:58;109158.25;;;34.37;nan
19208;BME280;9737;59.466;18.036;2023-05-23T11:37:26;109222.22;;;34.51;nan
19208;BME280;9737;59.466;18.036;2023-05-23T11:39:55;109187.50;;;34.44;nan
19208;BME280;9737;59.466;18.036;2023-05-23T11:42:23;108978.06;;;34.02;nan
19208;BME280;9737;59.466;18.036;2023-05-23T11:44:52;108956.16;;;33.98;nan
19208;BME280;9737;59.466;18.036;2023-05-23T11:47:20;108638.53;;;33.31;nan
19208;BME280;9737;59.466;18.036;2023-05-23T11:49:48;108807.16;;;33.70;nan
19208;BME280;9737;59.466;18.036;2023-05-23T11:52:17;108748.72;;;33.59;nan
19208;BME280;9737;59.466;18.036;2023-05-23T11:54:45;108657.41;;;33.41;nan
19208;BME280;9737;59.466;18.036;2023-05-23T11:57:13;108192.03;;;32.39;nan
19208;BME280;9737;59.466;18.036;2023-05-23T11:59:41;108452.19;;;33.00;nan
19208;BME280;9737;59.466;18.036;2023-05-23T12:02:09;108817.66;;;33.82;nan
19208;BME280;9737;59.466;18.036;2023-05-23T12:04:37;108655.31;;;33.46;nan
19208;BME280;9737;59.466;18.036;2023-05-23T12:07:05;108423.75;;;32.98;nan
19208;BME280;9737;59.466;18.036;2023-05-23T12:09:42;108460.97;;;33.08;nan
19208;BME280;9737;59.466;18.036;2023-05-23T12:12:11;108546.75;;;33.24;nan
19208;BME280;9737;59.466;18.036;2023-05-23T12:14:39;108626.63;;;33.49;nan
19208;BME280;9737;59.466;18.036;2023-05-23T12:17:10;108536.41;;;33.29;nan
19208;BME280;9737;59.466;18.036;2023-05-23T12:19:39;108300.41;;;32.80;nan
19208;BME280;9737;59.466;18.036;2023-05-23T12:22:12;108559.94;;;33.38;nan
19208;BME280;9737;59.466;18.036;2023-05-23T12:24:45;108636.38;;;33.58;nan
19208;BME280;9737;59.466;18.036;2023-05-23T12:27:15;108875.31;;;34.11;nan
19208;BME280;9737;59.466;18.036;2023-05-23T12:29:49;108841.38;;;34.08;nan
19208;BME280;9737;59.466;18.036;2023-05-23T12:32:17;109194.91;;;34.86;nan
19208;BME280;9737;59.466;18.036;2023-05-23T12:34:45;109149.19;;;34.75;nan
19208;BME280;9737;59.466;18.036;2023-05-23T12:37:13;108799.22;;;34.03;nan
19208;BME280;9737;59.466;18.036;2023-05-23T12:39:47;108834.69;;;34.13;nan
19208;BME280;9737;59.466;18.036;2023-05-23T12:42:15;108816.41;;;34.09;nan
19208;BME280;9737;59.466;18.036;2023-05-23T12:44:43;108650.34;;;33.73;nan
19208;BME280;9737;59.466;18.036;2023-05-23T12:47:11;108416.03;;;33.23;nan
19208;BME280;9737;59.466;18.036;2023-05-23T12:49:40;107795.06;;;31.84;nan
19208;BME280;9737;59.466;18.036;2023-05-23T12:52:10;107572.56;;;31.37;nan
19208;BME280;9737;59.466;18.036;2023-05-23T12:54:38;107349.66;;;30.85;nan
19208;BME280;9737;59.466;18.036;2023-05-23T12:57:07;107279.00;;;30.70;nan
19208;BME280;9737;59.466;18.036;2023-05-23T12:59:35;107403.63;;;31.05;nan
19208;BME280;9737;59.466;18.036;2023-05-23T13:02:04;107581.22;;;31.47;nan
19208;BME280;9737;59.466;18.036;2023-05-23T13:04:32;107703.63;;;31.76;nan
19208;BME280;9737;59.466;18.036;2023-05-23T13:07:00;107606.41;;;31.56;nan
19208;BME280;9737;59.466;18.036;2023-05-23T13:09:28;108067.78;;;32.59;nan
19208;BME280;9737;59.466;18.036;2023-05-23T13:11:56;108159.50;;;32.83;nan
19208;BME280;9737;59.466;18.036;2023-05-23T13:14:25;108160.41;;;32.83;nan
19208;BME280;9737;59.466;18.036;2023-05-23T13:16:53;108250.25;;;33.08;nan
19208;BME280;9737;59.466;18.036;2023-05-23T13:19:22;108274.84;;;33.12;nan
19208;BME280;9737;59.466;18.036;2023-05-23T13:21:50;108488.81;;;33.62;nan
19208;BME280;9737;59.466;18.036;2023-05-23T13:24:18;108336.66;;;33.29;nan
19208;BME280;9737;59.466;18.036;2023-05-23T13:26:46;108184.59;;;32.95;nan
19208;BME280;9737;59.466;18.036;2023-05-23T13:29:14;108421.28;;;33.48;nan
19208;BME280;9737;59.466;18.036;2023-05-23T13:31:43;108356.66;;;33.34;nan